الصفحة الرئيسية
METAR-TAF:

METAR-TAF

مطار :

مطار كلارك الدولي

Angeles, الفلبين

دائرة عرض: 15-11N, خط طول: 120-33E, ارتفاع: 148 متر

مراقبة الطقس الحالي

تاريخ ووقت الإصدار 58 دقيقة قبل الساعة 02:00UTC
ريح 6 عقدة من الشمال
درجة الحرارة 29°درجة مئوية
الرطوبة 70%
ضغط 1013 hPa
الرؤية: 8000 متر
غيوم متفرقة على ارتفاع 2000 قدم
غيوم مفككة على ارتفاع 10000 قدم

METAR: RPLC 270200Z 36006KT 8000 SCT020 BKN100 29/23 Q1013 NOSIG RMK A2991

زمن: 10:58 (02:58 UTC)

توقعات

تاريخ ووقت الإصدار 3ساعات و 58 دقيقة قبل الساعة 23:00UTC
التوقعات صالحة من27 الساعة 00 UTC إلى 28 الساعة 06 UTC
ريح 5 عقدة من الشمال
الرؤية 10 كم أو أكثر
غيوم متفرقة على ارتفاع 2000 قدم
غيوم مفككة على ارتفاع 30000 قدم
مؤقت
من 27 الساعة 00 UTC إلى 27 الساعة 06 UTC
ريح 10 عقدة من الشمال الشرقي
غيوم متفرقة على ارتفاع 2000 قدم
غيوم مفككة على ارتفاع 10000 قدم

TAF: RPLC 262300Z 2700/2806 36005KT 9999 SCT020 BKN300 TX33/2706Z TN23/2721Z TEMPO 2700/2706 04010KT SCT020 BKN100

أرصاد الطقس والتوقعات من أكثر من 4000 مطار (تقارير الطقس للمطار METAR والتنبؤ بالطقس بالمطارTAF).

المحطات المتاحة هي النقط الصفراء والحمراء على الخريطة.

حرك المؤشر فوق النقطة لمعرفة اسم المحطة.

ثم انقر لمعرفة أرصاد وتوقعات الطقس.

لتغيير الخارطة: اضغط على الأزرار الخضراء مع رمز الصليب الأسود للتكبير. على الزر الأخضر مع شرطة للتصغير، أو على الأسهم الخضراء للخرائط المجاورة.


METAR-TAF: